Time;durP1;ratioP1;P1;durP2;ratioP2;P2;SDS_P1;SDS_P2;PMS_P1;PMS_P2;Temp;Humidity;BMP_temperature;BMP_pressure;BME280_temperature;BME280_humidity;BME280_pressure;Samples;Min_cycle;Max_cycle;Signal;HPM_P1;HPM_P2
2022/01/18 00:00:43;;;;;;;12.80;5.33;;;7.50;99.90;;;;;;5074458;28;20197;-71
2022/01/18 00:03:08;;;;;;;24.67;5.80;;;7.60;99.90;;;;;;5074509;28;20437;-71
2022/01/18 00:05:34;;;;;;;19.90;6.03;;;7.60;99.90;;;;;;5090497;28;20188;-71
2022/01/18 00:08:00;;;;;;;15.10;5.60;;;7.80;99.90;;;;;;5095145;28;20188;-71
2022/01/18 00:10:29;;;;;;;9.27;5.37;;;7.80;99.90;;;;;;5094951;28;20195;-70
2022/01/18 00:15:56;;;;;;;15.73;5.50;;;7.90;99.90;;;;;;5092828;28;20420;-70
2022/01/18 00:18:22;;;;;;;17.47;5.90;;;8.00;99.90;;;;;;5094842;28;20395;-71
2022/01/18 00:23:33;;;;;;;11.73;4.73;;;7.80;99.90;;;;;;5094487;28;20756;-71
2022/01/18 00:25:59;;;;;;;16.13;5.00;;;7.80;99.90;;;;;;5092830;28;20518;-71
2022/01/18 00:28:27;;;;;;;16.50;6.33;;;7.90;99.90;;;;;;5094459;28;20459;-70
2022/01/18 00:33:40;;;;;;;15.90;6.57;;;7.80;99.90;;;;;;5094431;28;20462;-70
2022/01/18 00:36:11;;;;;;;18.17;6.80;;;7.60;99.90;;;;;;5092164;28;20419;-71
2022/01/18 00:38:47;;;;;;;23.73;8.20;;;7.50;99.90;;;;;;5094144;28;20410;-71
2022/01/18 00:41:15;;;;;;;20.47;5.97;;;7.50;99.90;;;;;;5074740;28;20506;-71
2022/01/18 00:43:42;;;;;;;13.90;7.27;;;7.40;99.90;;;;;;5073984;28;20411;-70
2022/01/18 00:46:08;;;;;;;13.73;5.60;;;7.40;99.90;;;;;;5074025;28;20439;-68
2022/01/18 00:48:35;;;;;;;12.90;5.93;;;7.30;99.90;;;;;;5073942;28;20454;-70
2022/01/18 00:51:06;;;;;;;13.60;5.90;;;7.20;99.90;;;;;;5056433;28;21161;-70
2022/01/18 00:53:35;;;;;;;23.23;6.73;;;7.30;99.90;;;;;;5073972;28;20516;-69
2022/01/18 00:56:16;;;;;;;19.30;6.93;;;7.30;99.90;;;;;;5073560;28;20784;-69
2022/01/18 00:58:43;;;;;;;17.70;7.07;;;7.30;99.90;;;;;;5073541;28;20476;-70
2022/01/18 01:01:11;;;;;;;20.50;7.33;;;7.30;99.90;;;;;;5074548;28;20967;-69
2022/01/18 01:03:37;;;;;;;19.67;7.17;;;7.30;99.90;;;;;;5073460;28;20408;-69
2022/01/18 01:06:04;;;;;;;18.60;7.27;;;7.40;99.90;;;;;;5073563;28;20451;-71
2022/01/18 01:08:30;;;;;;;16.70;6.20;;;7.50;99.90;;;;;;5073559;28;20417;-71
2022/01/18 01:10:56;;;;;;;17.17;7.53;;;7.40;99.90;;;;;;5074523;28;20501;-70
2022/01/18 01:13:22;;;;;;;14.30;6.40;;;7.40;99.90;;;;;;5073058;28;20459;-70
2022/01/18 01:18:45;;;;;;;15.80;6.20;;;7.40;99.90;;;;;;5073131;28;20409;-70
2022/01/18 01:45:29;;;;;;;25.63;7.47;;;7.30;99.90;;;;;;5075429;28;20514;-68
2022/01/18 01:47:55;;;;;;;11.30;5.77;;;7.30;99.90;;;;;;5071903;28;20472;-69
2022/01/18 01:50:24;;;;;;;11.40;5.50;;;7.30;99.90;;;;;;5072219;28;20459;-71
2022/01/18 01:52:54;;;;;;;9.93;4.60;;;7.30;99.90;;;;;;5066925;28;20593;-69
2022/01/18 01:55:22;;;;;;;13.60;5.83;;;7.30;99.90;;;;;;5048374;28;20458;-69
2022/01/18 01:57:47;;;;;;;17.27;5.60;;;7.30;99.90;;;;;;5072150;28;20408;-70
2022/01/18 02:00:17;;;;;;;12.13;5.07;;;7.20;99.90;;;;;;5054255;28;20448;-70
2022/01/18 02:02:43;;;;;;;14.43;4.70;;;7.20;99.90;;;;;;5066824;28;20184;-69
2022/01/18 02:05:09;;;;;;;12.70;5.03;;;7.20;99.90;;;;;;5092423;28;20422;-69
2022/01/18 02:07:35;;;;;;;14.23;5.20;;;7.20;99.90;;;;;;5092029;28;20642;-69
2022/01/18 02:10:00;;;;;;;12.97;5.20;;;7.30;99.90;;;;;;5092241;28;20435;-70
2022/01/18 02:12:26;;;;;;;14.63;4.87;;;7.20;99.90;;;;;;5092241;28;20291;-70
2022/01/18 02:14:58;;;;;;;15.57;4.70;;;7.30;99.90;;;;;;5092240;28;20166;-69
2022/01/18 02:22:54;;;;;;;11.57;4.17;;;7.20;99.90;;;;;;5072093;28;20645;-69
2022/01/18 02:25:20;;;;;;;12.97;4.87;;;7.20;99.90;;;;;;5054026;28;20530;-67
2022/01/18 02:27:45;;;;;;;13.40;4.53;;;7.10;99.90;;;;;;5071642;28;20434;-68
2022/01/18 02:30:12;;;;;;;12.83;5.57;;;7.10;99.90;;;;;;5053746;28;20220;-69
2022/01/18 02:32:37;;;;;;;21.30;5.07;;;7.10;99.90;;;;;;5071594;28;20201;-70
2022/01/18 02:35:04;;;;;;;19.53;5.40;;;7.20;99.90;;;;;;5071773;28;20497;-69
2022/01/18 02:37:30;;;;;;;10.60;7.40;;;7.20;99.90;;;;;;5090408;28;20203;-69
2022/01/18 02:39:55;;;;;;;8.87;4.97;;;7.30;99.90;;;;;;5090484;28;20442;-70
2022/01/18 02:42:29;;;;;;;10.60;6.10;;;7.30;99.90;;;;;;5091745;28;20481;-69
2022/01/18 02:44:55;;;;;;;17.63;7.80;;;7.30;99.90;;;;;;5091800;28;20213;-69
2022/01/18 02:47:22;;;;;;;15.77;6.50;;;7.30;99.90;;;;;;5091293;28;20437;-69
2022/01/18 02:49:49;;;;;;;14.47;8.20;;;7.40;99.90;;;;;;5091534;28;20257;-69
2022/01/18 02:52:16;;;;;;;18.67;11.10;;;7.30;99.90;;;;;;5091747;28;20535;-69
2022/01/18 02:54:42;;;;;;;21.47;9.03;;;7.30;99.90;;;;;;5089859;28;20425;-69
2022/01/18 02:57:12;;;;;;;15.67;8.73;;;7.30;99.90;;;;;;5091281;28;20411;-70
2022/01/18 03:05:12;;;;;;;19.90;9.17;;;7.40;99.90;;;;;;5091983;28;20421;-69
2022/01/18 03:07:39;;;;;;;18.67;8.63;;;7.30;99.90;;;;;;5091597;28;20782;-70
2022/01/18 03:10:07;;;;;;;14.70;8.70;;;7.30;99.90;;;;;;5091414;28;20434;-69
2022/01/18 03:12:33;;;;;;;19.33;7.47;;;7.20;99.90;;;;;;5086020;28;20901;-69
2022/01/18 03:14:58;;;;;;;23.13;7.50;;;7.20;99.90;;;;;;5071474;28;20407;-70
2022/01/18 03:17:24;;;;;;;19.80;8.20;;;7.20;99.90;;;;;;5070846;28;20182;-70
2022/01/18 03:19:50;;;;;;;16.30;7.90;;;7.30;99.90;;;;;;5071266;28;20226;-69
2022/01/18 03:22:15;;;;;;;13.27;7.20;;;7.40;99.90;;;;;;5071212;28;20327;-70
2022/01/18 03:30:11;;;;;;;14.70;7.70;;;7.30;99.90;;;;;;5077585;28;20475;-70
2022/01/18 03:32:37;;;;;;;27.17;8.17;;;7.30;99.90;;;;;;5091049;28;20465;-70
2022/01/18 03:35:04;;;;;;;12.70;7.00;;;7.20;99.90;;;;;;5091274;28;20415;-70
2022/01/18 03:37:30;;;;;;;20.17;6.83;;;7.20;99.90;;;;;;5090842;28;20418;-70
2022/01/18 03:39:55;;;;;;;20.80;10.20;;;7.20;99.90;;;;;;5091453;28;20427;-69
2022/01/18 03:45:07;;;;;;;17.37;7.80;;;7.10;99.90;;;;;;5091317;28;20183;-70
2022/01/18 03:47:33;;;;;;;20.10;8.30;;;7.10;99.90;;;;;;5084179;28;20425;-70
2022/01/18 03:49:59;;;;;;;18.00;7.40;;;7.10;99.90;;;;;;5092156;22;20451;-67
2022/01/18 03:52:26;;;;;;;16.57;7.50;;;7.20;99.90;;;;;;5037303;28;20997;-69
2022/01/18 03:54:51;;;;;;;22.97;8.57;;;7.20;99.90;;;;;;5045292;28;20408;-70
2022/01/18 03:57:18;;;;;;;15.43;8.17;;;7.20;99.90;;;;;;5050796;28;20414;-69
2022/01/18 03:59:44;;;;;;;20.73;8.67;;;7.30;99.90;;;;;;5051248;28;20463;-70
2022/01/18 04:02:09;;;;;;;17.33;8.90;;;7.40;99.90;;;;;;5051350;28;20440;-69
2022/01/18 04:04:36;;;;;;;22.30;11.40;;;7.40;99.90;;;;;;5051997;28;20409;-68
2022/01/18 04:07:02;;;;;;;20.90;10.10;;;7.40;99.90;;;;;;5071162;28;20183;-69
2022/01/18 04:09:27;;;;;;;23.47;9.87;;;7.50;99.90;;;;;;5071135;28;20461;-68
2022/01/18 04:11:53;;;;;;;22.03;12.13;;;7.30;99.90;;;;;;5074508;28;20193;-68
2022/01/18 04:14:19;;;;;;;22.73;10.63;;;7.20;99.90;;;;;;5074880;28;20197;-68
2022/01/18 04:17:01;;;;;;;22.00;11.50;;;7.10;99.90;;;;;;5074476;28;20407;-69
2022/01/18 04:27:24;;;;;;;17.83;11.30;;;7.00;99.90;;;;;;5054483;28;20432;-69
2022/01/18 04:29:49;;;;;;;24.97;13.03;;;7.00;99.90;;;;;;5054394;28;20421;-68
2022/01/18 04:32:15;;;;;;;21.90;11.87;;;7.00;99.90;;;;;;5054465;28;20233;-70
2022/01/18 04:34:40;;;;;;;23.73;11.90;;;7.10;99.90;;;;;;5054506;28;20209;-70
2022/01/18 04:37:06;;;;;;;27.90;13.10;;;7.10;99.90;;;;;;5037162;28;20169;-69
2022/01/18 04:39:39;;;;;;;25.53;12.80;;;7.10;99.90;;;;;;5062438;28;20169;-69
2022/01/18 04:42:14;;;;;;;23.50;12.97;;;7.10;99.90;;;;;;5049238;28;20986;-69
2022/01/18 04:49:51;;;;;;;27.50;13.40;;;7.10;99.90;;;;;;5046733;28;20221;-69
2022/01/18 04:52:18;;;;;;;24.17;13.30;;;7.10;99.90;;;;;;5049119;28;20562;-70
2022/01/18 04:54:46;;;;;;;26.30;13.60;;;7.10;99.90;;;;;;5051052;28;20954;-69
2022/01/18 04:59:37;;;;;;;25.13;14.47;;;7.20;99.90;;;;;;5046080;28;20504;-68
2022/01/18 05:02:04;;;;;;;27.70;13.40;;;7.30;99.90;;;;;;5031958;28;20205;-67
2022/01/18 05:04:29;;;;;;;26.90;13.50;;;7.40;99.90;;;;;;5051908;28;20412;-68
2022/01/18 05:06:59;;;;;;;23.03;12.63;;;7.40;99.90;;;;;;5056812;28;20421;-68
2022/01/18 05:09:25;;;;;;;32.00;12.97;;;7.40;99.90;;;;;;5052129;28;20181;-68
2022/01/18 05:11:59;;;;;;;21.50;12.53;;;7.50;99.90;;;;;;5053566;28;20937;-68
2022/01/18 05:14:31;;;;;;;28.03;14.07;;;7.40;99.90;;;;;;5035927;28;20173;-68
2022/01/18 05:17:08;;;;;;;26.23;13.13;;;7.50;99.90;;;;;;5053391;28;20417;-68
2022/01/18 05:25:03;;;;;;;23.70;13.80;;;7.10;99.90;;;;;;5051867;28;20445;-68
2022/01/18 05:27:28;;;;;;;25.37;12.90;;;7.00;99.90;;;;;;5052605;28;20511;-68
2022/01/18 05:29:54;;;;;;;25.17;13.97;;;7.10;99.90;;;;;;5050588;28;20413;-67
2022/01/18 05:32:19;;;;;;;29.90;14.33;;;7.10;99.90;;;;;;5051516;28;20194;-68
2022/01/18 05:34:48;;;;;;;22.90;13.10;;;7.00;99.90;;;;;;5052411;28;20166;-68
2022/01/18 05:37:14;;;;;;;28.23;14.83;;;7.00;99.90;;;;;;5040693;28;20168;-68
2022/01/18 05:39:39;;;;;;;32.13;15.07;;;7.00;99.90;;;;;;5073606;28;20779;-67
2022/01/18 05:42:05;;;;;;;26.93;14.37;;;7.00;99.90;;;;;;5073475;28;20194;-68
2022/01/18 05:44:31;;;;;;;24.10;13.73;;;7.00;99.90;;;;;;5074209;28;20170;-68
2022/01/18 05:46:56;;;;;;;19.83;14.30;;;7.00;99.90;;;;;;5080531;28;20499;-68
2022/01/18 05:49:22;;;;;;;32.70;15.67;;;7.00;99.90;;;;;;5090910;28;20264;-68
2022/01/18 05:51:48;;;;;;;26.60;15.60;;;7.10;99.90;;;;;;5094908;28;20208;-68
2022/01/18 05:54:13;;;;;;;26.30;16.60;;;7.10;99.90;;;;;;5094576;28;20165;-67
2022/01/18 05:56:39;;;;;;;34.03;16.70;;;7.00;99.90;;;;;;5090516;28;20199;-69
2022/01/18 05:59:06;;;;;;;24.83;17.10;;;7.00;99.90;;;;;;5071994;28;20178;-68
2022/01/18 06:01:34;;;;;;;22.77;16.20;;;6.90;99.90;;;;;;5073438;28;20486;-68
2022/01/18 06:09:12;;;;;;;39.13;19.20;;;7.10;99.90;;;;;;5086708;28;20507;-68
2022/01/18 06:11:37;;;;;;;31.97;20.07;;;7.10;99.90;;;;;;5087301;28;20435;-68
2022/01/18 06:14:03;;;;;;;35.70;20.73;;;7.10;99.90;;;;;;5095471;28;20447;-67
2022/01/18 06:16:29;;;;;;;40.40;20.43;;;7.20;99.90;;;;;;5091470;28;20170;-71
2022/01/18 06:18:55;;;;;;;29.43;18.47;;;7.30;99.90;;;;;;5090748;28;20228;-68
2022/01/18 06:21:21;;;;;;;40.70;21.27;;;7.30;99.90;;;;;;5080892;28;20447;-68
2022/01/18 06:23:47;;;;;;;38.27;22.10;;;7.30;99.90;;;;;;5073308;28;20185;-68
2022/01/18 06:26:16;;;;;;;35.60;21.17;;;7.30;99.90;;;;;;5072149;28;21102;-68
2022/01/18 06:28:45;;;;;;;30.73;19.17;;;7.30;99.90;;;;;;5072348;28;20173;-68
2022/01/18 06:31:11;;;;;;;43.60;22.00;;;7.40;99.90;;;;;;5070644;28;20475;-67
2022/01/18 06:33:36;;;;;;;38.00;22.90;;;7.30;99.90;;;;;;5071895;28;20979;-68
2022/01/18 06:36:02;;;;;;;36.03;21.10;;;7.10;99.90;;;;;;5071777;28;20170;-68
2022/01/18 06:38:28;;;;;;;39.63;23.27;;;7.10;99.90;;;;;;5072105;28;20173;-69
2022/01/18 06:40:53;;;;;;;37.37;20.23;;;7.10;99.90;;;;;;5068308;28;20448;-68
2022/01/18 06:43:19;;;;;;;39.13;23.40;;;7.10;99.90;;;;;;5051979;28;20548;-69
2022/01/18 06:45:45;;;;;;;41.30;23.00;;;7.10;99.90;;;;;;5051781;28;20175;-68
2022/01/18 06:48:11;;;;;;;38.03;20.20;;;7.20;99.90;;;;;;5053085;28;20412;-69
2022/01/18 06:50:37;;;;;;;45.07;19.90;;;7.30;99.90;;;;;;5036590;28;20606;-68
2022/01/18 06:53:03;;;;;;;36.13;19.13;;;7.40;99.90;;;;;;5053724;28;20194;-68
2022/01/18 06:55:28;;;;;;;32.97;18.40;;;7.50;99.90;;;;;;5052469;28;20170;-68
2022/01/18 06:57:56;;;;;;;44.83;18.90;;;7.60;99.90;;;;;;5052669;28;20407;-68
2022/01/18 07:00:22;;;;;;;38.33;22.03;;;7.60;99.90;;;;;;5034133;28;20198;-68
2022/01/18 07:02:47;;;;;;;41.00;20.73;;;7.60;99.90;;;;;;5053318;28;20447;-69
2022/01/18 07:05:13;;;;;;;30.37;16.57;;;7.60;99.90;;;;;;5051736;28;20412;-68
2022/01/18 07:07:39;;;;;;;31.70;19.10;;;7.60;99.90;;;;;;5051727;28;20214;-68
2022/01/18 07:10:07;;;;;;;30.63;17.27;;;7.50;99.90;;;;;;5051873;28;20209;-68
2022/01/18 07:12:34;;;;;;;37.60;18.60;;;7.40;99.90;;;;;;5052493;28;20855;-69
2022/01/18 07:15:01;;;;;;;36.97;19.30;;;7.40;99.90;;;;;;5051909;28;20416;-69
2022/01/18 07:17:26;;;;;;;31.87;16.60;;;7.50;99.90;;;;;;5051875;28;20406;-69
2022/01/18 07:19:52;;;;;;;32.40;18.93;;;7.40;99.90;;;;;;5051135;28;20543;-68
2022/01/18 07:22:17;;;;;;;40.63;21.00;;;7.40;99.90;;;;;;5033941;28;20177;-69
2022/01/18 07:24:45;;;;;;;34.53;18.00;;;7.40;99.90;;;;;;5052644;28;20202;-69
2022/01/18 07:27:13;;;;;;;35.20;17.00;;;7.40;99.90;;;;;;5051219;28;20677;-69
2022/01/18 07:29:41;;;;;;;32.40;17.40;;;7.40;99.90;;;;;;5033931;28;20512;-69
2022/01/18 07:32:08;;;;;;;32.60;18.37;;;7.50;99.90;;;;;;5033523;28;20502;-69
2022/01/18 07:34:38;;;;;;;33.50;16.80;;;7.50;99.90;;;;;;5052617;28;20406;-70
2022/01/18 07:37:04;;;;;;;39.07;17.50;;;7.50;99.90;;;;;;5051899;28;20381;-68
2022/01/18 07:39:29;;;;;;;34.60;17.37;;;7.50;99.90;;;;;;5051726;28;20407;-69
2022/01/18 07:41:55;;;;;;;29.87;16.27;;;7.50;99.90;;;;;;5051732;28;20222;-69
2022/01/18 07:44:20;;;;;;;36.03;18.50;;;7.60;99.90;;;;;;5035375;28;20172;-70
2022/01/18 07:46:46;;;;;;;34.57;17.47;;;7.50;99.90;;;;;;5055320;28;20714;-68
2022/01/18 07:49:11;;;;;;;37.47;18.70;;;7.50;99.90;;;;;;5055902;28;20178;-69
2022/01/18 07:51:37;;;;;;;31.20;16.33;;;7.50;99.90;;;;;;5056028;28;20232;-68
2022/01/18 07:54:03;;;;;;;32.03;16.30;;;7.50;99.90;;;;;;5055622;28;20210;-68
2022/01/18 07:56:28;;;;;;;38.10;18.00;;;7.50;99.90;;;;;;5056901;28;20657;-69
2022/01/18 07:58:54;;;;;;;38.50;17.97;;;7.50;99.90;;;;;;5056049;28;20495;-68
2022/01/18 08:01:20;;;;;;;29.87;15.60;;;7.60;99.90;;;;;;5037593;28;20212;-68
2022/01/18 08:03:45;;;;;;;28.53;15.27;;;7.50;99.90;;;;;;5055859;28;20536;-68
2022/01/18 08:06:11;;;;;;;33.40;16.60;;;7.50;99.90;;;;;;5061552;28;20432;-68
2022/01/18 08:08:39;;;;;;;33.73;16.53;;;7.60;99.90;;;;;;5076144;28;20169;-68
2022/01/18 08:11:06;;;;;;;30.97;16.87;;;7.70;99.90;;;;;;5074717;28;20200;-69
2022/01/18 08:13:38;;;;;;;28.90;16.00;;;7.80;99.90;;;;;;5057721;28;20449;-68
2022/01/18 08:18:50;;;;;;;39.50;17.83;;;7.80;99.90;;;;;;5037062;28;20456;-68
2022/01/18 08:21:16;;;;;;;34.80;17.10;;;7.90;99.90;;;;;;5036744;28;20447;-69
2022/01/18 08:23:42;;;;;;;31.83;17.63;;;7.90;99.90;;;;;;5037146;28;20409;-70
2022/01/18 08:26:07;;;;;;;32.10;15.70;;;7.80;99.90;;;;;;5039154;28;20421;-70
2022/01/18 08:28:34;;;;;;;32.77;17.73;;;7.70;99.90;;;;;;5062026;28;20188;-69
2022/01/18 08:30:59;;;;;;;28.70;15.70;;;7.80;99.90;;;;;;5065588;28;20316;-69
2022/01/18 08:33:25;;;;;;;32.20;16.90;;;7.80;99.90;;;;;;5066487;28;20452;-69
2022/01/18 08:35:51;;;;;;;36.90;16.80;;;7.90;99.90;;;;;;5064917;28;20191;-69
2022/01/18 08:38:17;;;;;;;33.90;17.10;;;7.90;99.90;;;;;;5037365;28;20590;-69
2022/01/18 08:40:42;;;;;;;32.57;16.17;;;7.90;99.90;;;;;;5072492;28;20443;-69
2022/01/18 08:43:08;;;;;;;31.40;14.67;;;8.00;99.90;;;;;;5074425;28;20444;-69
2022/01/18 08:45:34;;;;;;;32.80;15.83;;;8.00;99.90;;;;;;5074888;28;20552;-70
2022/01/18 08:47:59;;;;;;;25.13;15.33;;;8.00;99.90;;;;;;5075175;28;20563;-68
2022/01/18 08:50:25;;;;;;;32.10;17.80;;;8.10;99.90;;;;;;5072572;28;20695;-68
2022/01/18 08:52:52;;;;;;;24.83;14.23;;;8.10;99.90;;;;;;5074122;28;20628;-68
2022/01/18 08:55:19;;;;;;;30.80;15.77;;;8.10;99.90;;;;;;5071221;28;20178;-68
2022/01/18 08:57:46;;;;;;;28.03;15.07;;;8.20;99.90;;;;;;5045194;28;20415;-67
2022/01/18 09:00:14;;;;;;;29.70;13.90;;;8.20;99.90;;;;;;5054521;28;20427;-68
2022/01/18 09:02:40;;;;;;;32.33;17.00;;;8.30;99.90;;;;;;5074301;28;20399;-68
2022/01/18 09:05:06;;;;;;;36.53;15.53;;;8.30;99.90;;;;;;5061052;28;20525;-68
2022/01/18 09:07:33;;;;;;;31.57;15.47;;;8.20;99.90;;;;;;5053877;28;20171;-69
2022/01/18 09:10:03;;;;;;;25.80;14.53;;;8.20;99.90;;;;;;5052844;28;20930;-69
2022/01/18 09:12:28;;;;;;;25.97;15.30;;;8.20;99.90;;;;;;5053847;28;20522;-69
2022/01/18 09:14:54;;;;;;;27.87;15.70;;;8.10;99.90;;;;;;5053224;28;21151;-69
2022/01/18 09:17:19;;;;;;;29.63;16.90;;;8.10;99.90;;;;;;5056871;28;20182;-68
2022/01/18 09:19:45;;;;;;;31.13;15.20;;;8.10;99.90;;;;;;5061193;28;20220;-69
2022/01/18 09:22:10;;;;;;;27.37;14.63;;;8.20;99.90;;;;;;5061742;28;20206;-68
2022/01/18 09:24:36;;;;;;;23.97;14.20;;;8.30;99.90;;;;;;5073523;28;20259;-70
2022/01/18 09:27:02;;;;;;;33.83;15.67;;;8.30;99.90;;;;;;5073465;28;20173;-69
2022/01/18 09:29:30;;;;;;;27.43;13.83;;;8.30;99.90;;;;;;5071033;28;20204;-68
2022/01/18 09:31:56;;;;;;;30.93;14.50;;;8.30;99.90;;;;;;5054944;28;20446;-68
2022/01/18 09:34:22;;;;;;;38.20;20.60;;;8.40;99.90;;;;;;5076512;28;20402;-68
2022/01/18 09:36:47;;;;;;;36.93;17.60;;;8.40;99.90;;;;;;5093639;28;20650;-68
2022/01/18 09:39:13;;;;;;;28.40;14.37;;;8.40;99.90;;;;;;5091066;28;20415;-69
2022/01/18 09:41:42;;;;;;;29.17;16.00;;;8.50;99.90;;;;;;5090504;28;20184;-68
2022/01/18 09:44:08;;;;;;;31.50;15.00;;;8.50;99.90;;;;;;5055177;28;20185;-68
2022/01/18 09:46:34;;;;;;;25.67;13.93;;;8.60;99.90;;;;;;5054108;28;20409;-68
2022/01/18 09:49:00;;;;;;;26.43;13.83;;;8.60;99.90;;;;;;5053399;28;20447;-66
2022/01/18 09:51:28;;;;;;;23.70;12.67;;;8.60;99.90;;;;;;5057683;28;20455;-68
2022/01/18 09:53:54;;;;;;;28.73;12.83;;;8.70;99.90;;;;;;5073231;28;20457;-67
2022/01/18 09:56:19;;;;;;;26.47;14.77;;;8.70;99.90;;;;;;5055556;28;20917;-68
2022/01/18 09:58:45;;;;;;;26.07;12.37;;;8.60;99.90;;;;;;5072789;28;20560;-68
2022/01/18 10:01:11;;;;;;;26.33;14.07;;;8.60;99.90;;;;;;5072221;28;20181;-67
2022/01/18 10:03:39;;;;;;;26.47;14.30;;;8.70;99.90;;;;;;5067825;28;20339;-68
2022/01/18 10:06:06;;;;;;;24.80;14.23;;;8.70;99.90;;;;;;5052151;28;20427;-67
2022/01/18 10:08:32;;;;;;;25.20;14.47;;;8.60;99.90;;;;;;5033815;28;20415;-68
2022/01/18 10:11:10;;;;;;;25.23;14.93;;;8.50;99.90;;;;;;5052543;28;20441;-68
2022/01/18 10:13:36;;;;;;;24.73;14.43;;;8.60;99.90;;;;;;5066095;28;20454;-69
2022/01/18 10:16:10;;;;;;;25.27;13.67;;;8.70;99.90;;;;;;5071690;28;20429;-68
2022/01/18 10:19:02;;;;;;;24.93;13.00;;;8.80;99.90;;;;;;5071104;28;20403;-68
2022/01/18 10:21:39;;;;;;;30.43;14.43;;;8.90;99.90;;;;;;5067356;28;20446;-68
2022/01/18 10:24:23;;;;;;;25.53;13.60;;;9.00;99.90;;;;;;5070349;28;20525;-69
2022/01/18 10:26:53;;;;;;;27.73;14.60;;;9.00;99.90;;;;;;5071474;28;20422;-67
2022/01/18 10:29:25;;;;;;;32.70;13.63;;;9.10;99.90;;;;;;5072019;28;20404;-67
2022/01/18 10:35:04;;;;;;;24.73;12.40;;;8.90;99.90;;;;;;5068621;28;20432;-68
2022/01/18 10:37:15;;;;;;;22.70;12.13;;;8.80;99.90;;;;;;5065633;28;20437;-68
2022/01/18 10:39:46;;;;;;;23.90;11.57;;;8.80;99.90;;;;;;5071662;28;20446;-68
2022/01/18 10:42:19;;;;;;;17.93;12.80;;;8.90;99.90;;;;;;5071928;28;20431;-69
2022/01/18 10:45:07;;;;;;;22.43;12.73;;;9.10;99.90;;;;;;5072108;28;20415;-68
2022/01/18 10:47:34;;;;;;;26.43;13.27;;;9.00;99.90;;;;;;5071657;28;20415;-68
2022/01/18 10:50:14;;;;;;;30.23;14.70;;;9.00;99.90;;;;;;5069754;28;20434;-68
2022/01/18 10:52:40;;;;;;;26.67;13.17;;;9.20;99.90;;;;;;5071621;28;20446;-68
2022/01/18 10:55:13;;;;;;;28.57;13.70;;;9.30;99.90;;;;;;5071695;28;20427;-67
2022/01/18 10:57:39;;;;;;;25.03;12.90;;;9.40;99.90;;;;;;5071375;28;20442;-67
2022/01/18 11:00:24;;;;;;;20.80;13.40;;;9.40;99.90;;;;;;5071297;28;20493;-68
2022/01/18 11:02:53;;;;;;;28.27;13.50;;;9.40;99.90;;;;;;5073542;28;20575;-69
2022/01/18 11:05:30;;;;;;;24.47;13.70;;;9.40;99.90;;;;;;5036653;28;20428;-69
2022/01/18 11:08:03;;;;;;;24.50;13.17;;;9.40;99.90;;;;;;5033970;28;20448;-70
2022/01/18 11:10:43;;;;;;;27.00;13.50;;;9.40;99.90;;;;;;5032671;28;20846;-69
2022/01/18 11:13:20;;;;;;;22.53;13.30;;;9.50;99.90;;;;;;5050585;28;20466;-68
2022/01/18 11:15:48;;;;;;;19.47;11.90;;;9.50;99.90;;;;;;5050862;28;20405;-69
2022/01/18 11:18:18;;;;;;;24.67;12.33;;;9.50;99.90;;;;;;5050930;28;20466;-68
2022/01/18 11:20:48;;;;;;;19.83;11.57;;;9.50;99.90;;;;;;5035348;28;20812;-69
2022/01/18 11:23:14;;;;;;;23.47;12.80;;;9.60;99.90;;;;;;5056080;28;20428;-68
2022/01/18 11:25:41;;;;;;;17.43;10.10;;;9.60;99.90;;;;;;5054921;28;20487;-68
2022/01/18 11:28:09;;;;;;;18.90;10.43;;;9.70;99.90;;;;;;5055141;28;20503;-68
2022/01/18 11:30:37;;;;;;;17.53;10.60;;;9.70;99.90;;;;;;5055605;28;20967;-69
2022/01/18 11:33:07;;;;;;;17.20;9.97;;;9.50;99.90;;;;;;5038332;28;21006;-68
2022/01/18 11:35:44;;;;;;;17.97;9.10;;;9.30;99.90;;;;;;5054682;28;20401;-68
2022/01/18 11:38:29;;;;;;;20.23;10.67;;;9.30;99.90;;;;;;5054541;28;20426;-68
2022/01/18 11:40:58;;;;;;;16.50;10.70;;;9.40;99.90;;;;;;5054757;28;20763;-68
2022/01/18 11:43:35;;;;;;;18.83;9.70;;;9.50;99.90;;;;;;5055338;28;20487;-68
2022/01/18 11:46:24;;;;;;;22.07;11.73;;;9.60;99.90;;;;;;5036750;28;20426;-70
2022/01/18 11:49:00;;;;;;;17.90;11.20;;;9.60;99.90;;;;;;5054714;28;20499;-70
2022/01/18 11:51:49;;;;;;;20.47;11.50;;;9.50;99.90;;;;;;5054597;28;21013;-69
2022/01/18 11:54:30;;;;;;;16.40;10.13;;;9.20;99.90;;;;;;5055721;28;20501;-68
2022/01/18 11:56:55;;;;;;;19.20;11.00;;;9.20;99.90;;;;;;5054486;28;20408;-68
2022/01/18 11:59:26;;;;;;;18.77;10.37;;;9.20;99.90;;;;;;5054563;28;21130;-69
2022/01/18 12:01:53;;;;;;;16.70;10.33;;;9.20;99.90;;;;;;5054050;28;20613;-68
2022/01/18 12:05:03;;;;;;;17.60;9.60;;;9.30;99.90;;;;;;5054697;28;20446;-70
2022/01/18 12:07:33;;;;;;;22.80;10.07;;;9.30;99.90;;;;;;5041779;28;20455;-68
2022/01/18 12:10:18;;;;;;;17.03;9.37;;;9.40;99.90;;;;;;5036560;28;20419;-68
2022/01/18 12:12:48;;;;;;;21.00;11.50;;;9.50;99.90;;;;;;5054368;28;20462;-67
2022/01/18 12:15:19;;;;;;;19.57;11.20;;;9.40;99.90;;;;;;5055347;28;20474;-69
2022/01/18 12:17:54;;;;;;;19.03;10.73;;;9.10;99.90;;;;;;5054621;28;20418;-69
2022/01/18 12:20:39;;;;;;;22.13;12.30;;;9.00;99.90;;;;;;5054254;28;20424;-68
2022/01/18 12:23:24;;;;;;;19.90;12.20;;;8.90;99.90;;;;;;5054594;28;20423;-68
2022/01/18 12:25:57;;;;;;;22.37;13.27;;;9.00;99.90;;;;;;5055425;28;20432;-67
2022/01/18 12:34:28;;;;;;;24.10;14.30;;;8.80;99.90;;;;;;5079150;22;20972;-72
2022/01/18 12:36:55;;;;;;;26.90;15.17;;;8.80;99.90;;;;;;5069583;28;20431;-72
2022/01/18 12:39:22;;;;;;;31.47;14.87;;;8.80;99.90;;;;;;5074856;28;20410;-72
2022/01/18 12:41:55;;;;;;;29.70;15.70;;;8.90;99.90;;;;;;5073203;28;20961;-72
2022/01/18 12:44:22;;;;;;;35.73;17.00;;;9.10;99.90;;;;;;5073740;28;20424;-72
2022/01/18 12:46:56;;;;;;;34.83;18.60;;;9.10;99.90;;;;;;5073385;28;20730;-73
2022/01/18 12:49:22;;;;;;;34.33;18.60;;;9.20;99.90;;;;;;5074051;28;20406;-73
2022/01/18 12:51:55;;;;;;;29.00;16.97;;;9.30;99.90;;;;;;5074077;28;20737;-72
2022/01/18 12:54:32;;;;;;;33.93;18.53;;;9.30;99.90;;;;;;5073602;28;20577;-71
2022/01/18 12:57:10;;;;;;;32.83;17.03;;;9.20;99.90;;;;;;5073127;28;20915;-72
2022/01/18 13:00:05;;;;;;;36.67;17.93;;;9.00;99.90;;;;;;5073429;28;20409;-72
2022/01/18 13:02:30;;;;;;;42.23;19.00;;;8.80;99.90;;;;;;5033363;28;20460;-72
2022/01/18 13:05:01;;;;;;;34.60;17.53;;;8.80;99.90;;;;;;5046615;28;20519;-72
2022/01/18 13:07:27;;;;;;;26.40;16.07;;;8.90;99.90;;;;;;5053333;28;20192;-72
2022/01/18 13:10:07;;;;;;;30.60;16.50;;;9.00;99.90;;;;;;5053988;28;20418;-72
2022/01/18 13:12:35;;;;;;;28.50;17.07;;;9.10;99.90;;;;;;5071583;28;20454;-72
2022/01/18 13:15:04;;;;;;;28.67;15.50;;;9.00;99.90;;;;;;5052669;28;20890;-72
2022/01/18 13:23:18;;;;;;;23.53;14.00;;;9.00;99.90;;;;;;5054269;28;20424;-72
2022/01/18 13:25:55;;;;;;;26.40;12.70;;;9.10;99.90;;;;;;5052313;28;20525;-72
2022/01/18 13:28:32;;;;;;;25.77;12.90;;;9.20;99.90;;;;;;5052957;28;20495;-72
2022/01/18 13:31:14;;;;;;;24.17;11.93;;;9.30;99.90;;;;;;5053024;28;20777;-72
2022/01/18 13:33:56;;;;;;;21.30;11.30;;;9.30;99.90;;;;;;5053357;28;20490;-72
2022/01/18 13:36:29;;;;;;;17.27;10.07;;;9.40;99.90;;;;;;5052567;28;20409;-72
2022/01/18 13:38:54;;;;;;;16.23;10.10;;;9.40;99.90;;;;;;5051228;28;20467;-72
2022/01/18 13:41:20;;;;;;;20.30;10.90;;;9.40;99.90;;;;;;5044471;28;20851;-72
2022/01/18 13:43:48;;;;;;;21.43;10.83;;;9.50;99.90;;;;;;5053997;28;20307;-71
2022/01/18 13:46:26;;;;;;;20.63;11.57;;;9.50;99.90;;;;;;5051025;28;20791;-72
2022/01/18 13:49:06;;;;;;;22.30;12.33;;;9.40;99.90;;;;;;5051138;28;20489;-71
2022/01/18 13:51:32;;;;;;;27.80;12.90;;;9.40;99.90;;;;;;5033552;28;20565;-71
2022/01/18 13:54:05;;;;;;;19.03;10.90;;;9.40;99.90;;;;;;5047084;28;20484;-72
2022/01/18 13:56:31;;;;;;;22.50;11.50;;;9.50;99.90;;;;;;5046625;28;20479;-71
2022/01/18 13:59:05;;;;;;;19.80;11.90;;;9.40;99.90;;;;;;5046399;28;20540;-71
2022/01/18 14:01:35;;;;;;;24.10;12.00;;;9.40;99.90;;;;;;5046533;28;20485;-72
2022/01/18 14:04:15;;;;;;;23.27;11.57;;;9.50;99.90;;;;;;5050089;28;20488;-72
2022/01/18 14:06:43;;;;;;;25.88;13.77;;;9.40;99.90;;;;;;5041807;28;20440;-72
2022/01/18 14:09:09;;;;;;;17.37;11.73;;;9.40;99.90;;;;;;5038601;28;20206;-72
2022/01/18 14:11:36;;;;;;;20.50;12.73;;;9.50;99.90;;;;;;5047586;28;20448;-72
2022/01/18 14:14:16;;;;;;;19.73;11.73;;;9.50;99.90;;;;;;5047416;28;20871;-72
2022/01/18 14:16:53;;;;;;;22.13;11.23;;;9.50;99.90;;;;;;5064607;28;20470;-72
2022/01/18 14:19:27;;;;;;;18.37;10.70;;;9.50;99.90;;;;;;5050517;28;20445;-72
2022/01/18 14:21:54;;;;;;;22.07;11.00;;;9.40;99.90;;;;;;5047766;28;20446;-71
2022/01/18 14:24:36;;;;;;;28.63;11.23;;;9.30;99.90;;;;;;5047083;28;20786;-72
2022/01/18 14:27:06;;;;;;;18.07;10.80;;;9.30;99.90;;;;;;5050365;28;21141;-71